KAFO/AFO METAR and TAF weather

Enter ICAO airport designator
Station Type Date Time Source
KAFO METAR 2018/10/16 20:35 UTC NOAA

KAFO 162035Z AUTO 00000KT 10SM CLR 12/M04 A3035 RMK AO2


Station Type Date Time Source
KAFO Decoded METAR 2018/10/16 20:35 UTC NOAA

Station name not available
Oct 16, 2018 - 04:35 PM EDT / 2018.10.16 2035 UTC
Wind: Calm:0
Visibility: 10 mile(s):0
Sky conditions: clear
Temperature: 53 F (12 C)
Dew Point: 24 F (-4 C)
Relative Humidity: 32%
Pressure (altimeter): 30.35 in. Hg (1027 hPa)
ob: KAFO 162035Z AUTO 00000KT 10SM CLR 12/M04 A3035 RMK AO2
cycle: 20

Station Type Date Time Source
KAFO TAF UTC NOAA

Error!


Example: see airport list